Time;durP1;ratioP1;P1;durP2;ratioP2;P2;SDS_P1;SDS_P2;PMS_P1;PMS_P2;Temp;Humidity;BMP_temperature;BMP_pressure;BME280_temperature;BME280_humidity;BME280_pressure;Samples;Min_cycle;Max_cycle;Signal;HPM_P1;HPM_P2
2022/05/18 00:01:13;;;;;;;10.45;8.75;;;17.40;99.90;;;;;;4955642;28;20232;-63
2022/05/18 00:03:44;;;;;;;10.48;8.45;;;17.30;99.90;;;;;;4956193;28;20234;-63
2022/05/18 00:06:11;;;;;;;9.15;8.25;;;17.40;99.90;;;;;;4959796;28;20207;-62
2022/05/18 00:08:38;;;;;;;10.02;9.02;;;17.40;99.90;;;;;;4959080;28;20207;-63
2022/05/18 00:11:10;;;;;;;9.15;8.25;;;17.40;99.90;;;;;;4945358;28;20236;-62
2022/05/18 00:13:37;;;;;;;10.93;8.57;;;17.40;99.90;;;;;;4973363;28;20206;-63
2022/05/18 00:16:05;;;;;;;10.88;8.43;;;17.30;99.90;;;;;;4968613;28;20199;-62
2022/05/18 00:18:32;;;;;;;8.40;7.55;;;17.30;99.90;;;;;;4963803;28;21255;-63
2022/05/18 00:21:00;;;;;;;9.55;8.50;;;17.30;99.90;;;;;;4952986;28;20231;-63
2022/05/18 00:23:27;;;;;;;9.38;7.88;;;17.30;99.90;;;;;;4952770;28;20239;-63
2022/05/18 00:25:54;;;;;;;11.07;8.02;;;17.30;99.90;;;;;;4961967;28;20219;-62
2022/05/18 00:28:23;;;;;;;11.05;8.73;;;17.30;99.90;;;;;;4934575;28;20230;-63
2022/05/18 00:30:50;;;;;;;8.18;7.10;;;17.30;99.90;;;;;;4968160;28;20219;-62
2022/05/18 00:33:16;;;;;;;10.00;8.60;;;17.30;99.90;;;;;;4961781;28;20270;-63
2022/05/18 00:35:43;;;;;;;8.55;7.68;;;17.30;99.90;;;;;;4972254;28;20196;-63
2022/05/18 00:38:11;;;;;;;11.05;8.23;;;17.30;99.90;;;;;;4957155;28;20208;-62
2022/05/18 00:40:45;;;;;;;10.07;8.43;;;17.30;99.90;;;;;;4943758;28;21079;-63
2022/05/18 00:43:17;;;;;;;11.90;8.50;;;17.30;99.90;;;;;;4939052;28;20203;-63
2022/05/18 00:45:46;;;;;;;8.93;8.07;;;17.30;99.90;;;;;;4965875;28;20206;-62
2022/05/18 00:48:13;;;;;;;10.10;8.10;;;17.30;99.90;;;;;;4954195;28;20250;-62
2022/05/18 00:50:42;;;;;;;12.05;9.00;;;17.30;99.90;;;;;;4966748;28;20286;-63
2022/05/18 00:53:14;;;;;;;8.63;7.68;;;17.30;99.90;;;;;;4959141;28;20204;-62
2022/05/18 00:55:45;;;;;;;9.85;8.30;;;17.30;99.90;;;;;;4956361;28;20681;-63
2022/05/18 00:58:15;;;;;;;9.70;8.02;;;17.30;99.90;;;;;;4947984;28;20570;-62
2022/05/18 01:00:45;;;;;;;8.85;7.65;;;17.30;99.90;;;;;;4953089;28;20207;-62
2022/05/18 01:03:17;;;;;;;9.57;8.35;;;17.30;99.90;;;;;;4962813;28;20202;-63
2022/05/18 01:05:49;;;;;;;10.35;8.70;;;17.30;99.90;;;;;;4971711;28;20195;-63
2022/05/18 01:08:24;;;;;;;9.95;8.90;;;17.30;99.90;;;;;;4950414;28;20212;-63
2022/05/18 01:10:51;;;;;;;12.68;8.85;;;17.30;99.90;;;;;;4972664;28;20206;-63
2022/05/18 01:13:18;;;;;;;9.30;7.95;;;17.30;99.90;;;;;;4934474;28;21845;-63
2022/05/18 01:15:47;;;;;;;10.10;8.73;;;17.30;99.90;;;;;;4960640;28;20200;-63
2022/05/18 01:18:13;;;;;;;12.15;8.13;;;17.30;99.90;;;;;;4957730;28;20213;-62
2022/05/18 01:20:43;;;;;;;8.75;7.85;;;17.30;99.90;;;;;;4962457;28;20577;-63
2022/05/18 01:23:21;;;;;;;9.00;7.90;;;17.30;99.90;;;;;;4955787;28;20215;-63
2022/05/18 01:26:00;;;;;;;8.95;7.80;;;17.30;99.90;;;;;;4971147;28;20210;-63
2022/05/18 01:28:33;;;;;;;9.73;8.07;;;17.30;99.90;;;;;;4938250;28;20254;-63
2022/05/18 01:31:00;;;;;;;10.88;8.23;;;17.30;99.90;;;;;;4961731;28;20207;-63
2022/05/18 01:33:27;;;;;;;9.40;8.02;;;17.30;99.90;;;;;;4960767;28;20633;-62
2022/05/18 01:35:54;;;;;;;10.15;8.25;;;17.30;99.90;;;;;;4969691;28;20205;-63
2022/05/18 01:38:21;;;;;;;9.15;8.02;;;17.30;99.90;;;;;;4947548;28;20234;-63
2022/05/18 01:40:57;;;;;;;12.00;8.20;;;17.30;99.90;;;;;;4970447;28;20251;-63
2022/05/18 01:43:28;;;;;;;10.52;7.90;;;17.30;99.90;;;;;;4932321;28;20255;-63
2022/05/18 01:46:00;;;;;;;9.60;8.05;;;17.30;99.90;;;;;;4962839;28;20215;-63
2022/05/18 01:48:30;;;;;;;10.52;8.02;;;17.30;99.90;;;;;;4958638;28;20211;-63
2022/05/18 01:50:59;;;;;;;10.55;8.38;;;17.30;99.90;;;;;;4970399;28;20668;-63
2022/05/18 01:53:26;;;;;;;9.18;7.50;;;17.30;99.90;;;;;;4968484;28;20208;-63
2022/05/18 01:55:53;;;;;;;12.20;8.45;;;17.30;99.90;;;;;;4970853;28;20204;-62
2022/05/18 01:58:20;;;;;;;9.68;8.25;;;17.30;99.90;;;;;;4949870;28;21388;-63
2022/05/18 02:00:47;;;;;;;9.13;8.18;;;17.30;99.90;;;;;;4966056;28;20202;-62
2022/05/18 02:03:15;;;;;;;9.70;8.40;;;17.30;99.90;;;;;;4948177;28;20242;-63
2022/05/18 02:05:43;;;;;;;11.40;8.15;;;17.20;99.90;;;;;;4948897;28;20215;-63
2022/05/18 02:08:11;;;;;;;9.65;8.10;;;17.30;99.90;;;;;;4964066;28;20199;-63
2022/05/18 02:10:39;;;;;;;9.75;8.30;;;17.20;99.90;;;;;;4959164;28;20203;-62
2022/05/18 02:13:06;;;;;;;9.23;8.32;;;17.20;99.90;;;;;;4970999;28;20231;-62
2022/05/18 02:15:34;;;;;;;9.05;8.15;;;17.20;99.90;;;;;;4951595;28;20262;-62
2022/05/18 02:18:00;;;;;;;12.60;9.02;;;17.20;99.90;;;;;;4950509;28;20207;-63
2022/05/18 02:20:29;;;;;;;9.63;8.63;;;17.30;99.90;;;;;;4961201;28;20208;-63
2022/05/18 02:22:56;;;;;;;10.02;8.23;;;17.30;99.90;;;;;;4967606;28;20200;-63
2022/05/18 02:25:23;;;;;;;9.73;8.73;;;17.30;99.90;;;;;;4970030;28;20269;-63
2022/05/18 02:27:51;;;;;;;12.73;8.88;;;17.30;99.90;;;;;;4959887;28;20215;-63
2022/05/18 02:30:18;;;;;;;10.82;8.43;;;17.30;99.90;;;;;;4949535;28;20231;-63
2022/05/18 02:32:45;;;;;;;9.27;8.32;;;17.30;99.90;;;;;;4951989;28;20231;-63
2022/05/18 02:35:12;;;;;;;10.68;8.20;;;17.30;99.90;;;;;;4952625;28;20207;-63
2022/05/18 02:37:40;;;;;;;11.38;7.82;;;17.30;99.90;;;;;;4969591;28;20748;-63
2022/05/18 02:40:12;;;;;;;11.30;8.38;;;17.30;99.90;;;;;;4967359;28;20574;-63
2022/05/18 02:42:40;;;;;;;9.60;8.65;;;17.30;99.90;;;;;;4949871;28;20219;-63
2022/05/18 02:45:08;;;;;;;8.77;7.88;;;17.30;99.90;;;;;;4950660;28;20210;-62
2022/05/18 02:47:35;;;;;;;9.35;8.27;;;17.20;99.90;;;;;;4969311;28;20195;-64
2022/05/18 02:50:02;;;;;;;10.88;7.95;;;17.30;99.90;;;;;;4952120;28;20207;-62
2022/05/18 02:52:28;;;;;;;10.57;8.27;;;17.20;99.90;;;;;;4968512;28;20596;-63
2022/05/18 02:57:41;;;;;;;9.68;8.45;;;17.20;99.90;;;;;;4956717;28;20225;-61
2022/05/18 03:00:09;;;;;;;10.48;8.32;;;17.20;99.90;;;;;;4968607;28;20204;-61
2022/05/18 03:02:37;;;;;;;9.75;7.10;;;17.20;99.90;;;;;;4947492;28;20210;-63
2022/05/18 03:05:04;;;;;;;15.07;8.50;;;17.20;99.90;;;;;;4957845;28;20234;-63
2022/05/18 03:07:31;;;;;;;9.88;8.35;;;17.20;99.90;;;;;;4951102;28;20235;-62
2022/05/18 03:09:59;;;;;;;9.05;7.45;;;17.20;99.90;;;;;;4971917;28;20199;-62
2022/05/18 03:12:26;;;;;;;15.50;10.80;;;17.20;99.90;;;;;;4966609;28;20234;-63
2022/05/18 03:14:53;;;;;;;18.98;13.18;;;17.20;99.90;;;;;;4960634;28;20211;-63
2022/05/18 03:17:20;;;;;;;14.80;10.55;;;17.20;99.90;;;;;;4951958;28;20203;-62
2022/05/18 03:19:47;;;;;;;11.13;8.95;;;17.20;99.90;;;;;;4969796;28;20206;-63
2022/05/18 03:25:00;;;;;;;9.63;8.55;;;17.20;99.90;;;;;;4948300;28;20253;-63
2022/05/18 03:27:27;;;;;;;10.13;8.88;;;17.10;99.90;;;;;;4937687;28;20212;-63
2022/05/18 03:29:53;;;;;;;9.38;8.25;;;17.10;99.90;;;;;;4956468;28;20211;-62
2022/05/18 03:32:22;;;;;;;10.07;8.30;;;17.10;99.90;;;;;;4937136;28;20799;-63
2022/05/18 03:34:50;;;;;;;10.27;8.90;;;17.10;99.90;;;;;;4956641;28;20214;-62
2022/05/18 03:37:17;;;;;;;9.35;8.45;;;17.10;99.90;;;;;;4966303;28;20845;-63
2022/05/18 03:39:45;;;;;;;12.93;8.48;;;17.10;99.90;;;;;;4965454;28;20204;-62
2022/05/18 03:42:13;;;;;;;9.70;8.70;;;17.10;99.90;;;;;;4953741;28;20762;-63
2022/05/18 03:44:40;;;;;;;10.05;8.90;;;17.10;99.90;;;;;;4966480;28;20203;-63
2022/05/18 03:47:07;;;;;;;9.48;8.40;;;17.10;99.90;;;;;;4948348;28;20203;-63
2022/05/18 03:49:34;;;;;;;11.02;9.75;;;17.00;99.90;;;;;;4925911;28;20235;-63
2022/05/18 03:52:01;;;;;;;11.73;9.90;;;17.00;99.90;;;;;;4962751;28;20899;-62
2022/05/18 03:54:28;;;;;;;10.20;8.52;;;17.00;99.90;;;;;;4949210;28;20291;-63
2022/05/18 03:56:55;;;;;;;10.57;8.77;;;17.00;99.90;;;;;;4952465;28;20212;-63
2022/05/18 03:59:24;;;;;;;12.15;9.07;;;17.00;99.90;;;;;;4980406;23;20950;-64
2022/05/18 04:01:51;;;;;;;10.70;9.38;;;17.00;99.90;;;;;;4954556;28;20238;-63
2022/05/18 04:04:18;;;;;;;12.57;8.98;;;16.90;99.90;;;;;;4950296;28;20217;-63
2022/05/18 04:06:45;;;;;;;10.65;9.55;;;16.90;99.90;;;;;;4963512;28;20703;-63
2022/05/18 04:09:12;;;;;;;10.38;9.27;;;16.90;99.90;;;;;;4950648;28;20716;-63
2022/05/18 04:11:40;;;;;;;12.60;9.82;;;16.90;99.90;;;;;;4964637;28;20341;-63
2022/05/18 04:14:06;;;;;;;12.57;9.63;;;16.80;99.90;;;;;;4946324;28;20219;-63
2022/05/18 04:16:35;;;;;;;12.85;9.82;;;16.90;99.90;;;;;;4955691;28;20281;-63
2022/05/18 04:19:02;;;;;;;12.05;9.60;;;16.80;99.90;;;;;;4956635;28;21128;-63
2022/05/18 04:21:30;;;;;;;11.73;9.98;;;16.80;99.90;;;;;;4956386;28;20214;-63
2022/05/18 04:23:57;;;;;;;11.38;9.20;;;16.90;99.90;;;;;;4940476;28;20208;-63
2022/05/18 04:26:24;;;;;;;12.00;10.00;;;16.80;99.90;;;;;;4964403;28;20204;-63
2022/05/18 04:28:51;;;;;;;13.20;10.00;;;16.90;99.90;;;;;;4966556;28;20200;-63
2022/05/18 04:31:18;;;;;;;12.77;9.88;;;16.80;99.90;;;;;;4970907;28;20252;-62
2022/05/18 04:33:46;;;;;;;15.02;10.43;;;16.90;99.90;;;;;;4938467;28;20269;-63
2022/05/18 04:36:13;;;;;;;30.77;18.70;;;16.90;99.90;;;;;;4947886;28;20736;-63
2022/05/18 04:38:40;;;;;;;62.92;26.88;;;16.90;99.90;;;;;;4957393;28;20208;-63
2022/05/18 04:41:07;;;;;;;62.00;26.38;;;16.90;99.90;;;;;;4952990;28;20203;-63
2022/05/18 04:43:34;;;;;;;58.35;24.88;;;16.80;99.90;;;;;;4964806;28;20199;-62
2022/05/18 04:46:02;;;;;;;17.50;11.90;;;16.90;99.90;;;;;;4946047;28;20231;-63
2022/05/18 04:48:31;;;;;;;12.40;10.65;;;16.90;99.90;;;;;;4945118;28;20546;-63
2022/05/18 04:50:59;;;;;;;13.00;11.68;;;16.90;99.90;;;;;;4911397;28;20866;-63
2022/05/18 04:53:26;;;;;;;42.65;23.05;;;16.90;99.90;;;;;;4957916;28;20774;-62
2022/05/18 04:55:53;;;;;;;79.38;31.98;;;16.90;99.90;;;;;;4940407;28;20223;-63
2022/05/18 04:58:20;;;;;;;70.63;28.42;;;16.90;99.90;;;;;;4936525;28;20235;-63
2022/05/18 05:01:01;;;;;;;21.27;13.80;;;16.90;99.90;;;;;;4963107;28;20219;-63
2022/05/18 05:03:27;;;;;;;14.52;11.38;;;17.00;99.90;;;;;;4962574;28;20225;-63
2022/05/18 05:05:54;;;;;;;11.48;10.15;;;17.00;99.90;;;;;;4938020;28;20242;-63
2022/05/18 05:08:23;;;;;;;15.30;10.70;;;17.00;99.90;;;;;;4965376;28;21274;-62
2022/05/18 05:10:50;;;;;;;13.20;10.60;;;17.10;99.90;;;;;;4927067;28;20830;-63
2022/05/18 05:13:17;;;;;;;11.82;10.00;;;17.20;99.90;;;;;;4955426;28;20235;-62
2022/05/18 05:15:46;;;;;;;14.75;10.18;;;17.30;99.90;;;;;;4961182;28;20220;-63
2022/05/18 05:18:13;;;;;;;10.70;9.63;;;17.40;99.90;;;;;;4949955;28;20232;-63
2022/05/18 05:20:40;;;;;;;11.57;10.40;;;17.40;99.90;;;;;;4941753;28;20223;-64
2022/05/18 05:23:07;;;;;;;12.52;10.23;;;17.50;99.90;;;;;;4958057;28;20231;-63
2022/05/18 05:25:35;;;;;;;11.40;10.00;;;17.60;99.90;;;;;;4940833;28;21014;-63
2022/05/18 05:28:02;;;;;;;11.93;9.88;;;17.60;99.90;;;;;;4955774;28;20203;-64
2022/05/18 05:30:29;;;;;;;12.90;10.35;;;17.70;99.90;;;;;;4972499;28;21025;-63
2022/05/18 05:32:55;;;;;;;11.98;9.57;;;17.70;99.90;;;;;;4963895;28;20237;-63
2022/05/18 05:35:22;;;;;;;14.30;10.20;;;17.80;99.90;;;;;;4968590;28;20229;-64
2022/05/18 05:37:49;;;;;;;14.10;10.10;;;17.80;99.90;;;;;;4945711;28;20713;-63
2022/05/18 05:40:16;;;;;;;13.23;10.07;;;17.80;99.90;;;;;;4974052;28;20215;-63
2022/05/18 05:42:45;;;;;;;10.27;9.27;;;17.80;99.90;;;;;;4960467;28;20250;-63
2022/05/18 05:45:12;;;;;;;11.10;9.60;;;17.90;99.90;;;;;;4962447;28;20203;-63
2022/05/18 05:47:39;;;;;;;14.88;10.77;;;17.90;99.90;;;;;;4956980;28;20242;-63
2022/05/18 05:50:07;;;;;;;11.35;9.68;;;18.00;99.90;;;;;;4974288;28;20221;-64
2022/05/18 05:52:34;;;;;;;10.38;9.27;;;18.00;99.90;;;;;;4951034;28;20860;-63
2022/05/18 05:55:01;;;;;;;10.52;9.40;;;18.00;99.90;;;;;;4973811;28;20203;-63
2022/05/18 05:57:28;;;;;;;13.57;10.27;;;18.00;99.90;;;;;;4958010;28;20207;-63
2022/05/18 05:59:56;;;;;;;15.65;10.55;;;18.00;99.90;;;;;;4970648;28;20528;-63
2022/05/18 06:02:23;;;;;;;17.00;10.10;;;18.00;99.90;;;;;;4972523;28;20199;-63
2022/05/18 06:04:50;;;;;;;12.63;10.00;;;18.10;99.90;;;;;;4973363;28;20416;-63
2022/05/18 06:07:17;;;;;;;15.25;10.93;;;18.10;99.90;;;;;;4967520;28;20203;-63
2022/05/18 06:09:44;;;;;;;14.32;10.82;;;18.10;99.90;;;;;;4955317;28;20195;-63
2022/05/18 06:12:11;;;;;;;16.60;11.38;;;18.10;99.90;;;;;;4972850;28;20210;-63
2022/05/18 06:14:38;;;;;;;18.58;11.60;;;18.10;99.90;;;;;;4962403;28;20235;-63
2022/05/18 06:17:06;;;;;;;14.60;10.77;;;18.10;99.90;;;;;;4972687;28;20425;-63
2022/05/18 06:19:34;;;;;;;11.40;10.05;;;18.20;99.90;;;;;;4974481;28;20203;-63
2022/05/18 06:22:02;;;;;;;13.00;9.85;;;18.20;99.90;;;;;;4971779;28;20289;-63
2022/05/18 06:24:29;;;;;;;14.02;10.13;;;18.30;99.90;;;;;;4955761;28;20215;-63
2022/05/18 06:26:58;;;;;;;14.82;9.55;;;18.40;99.90;;;;;;4961972;28;20203;-63
2022/05/18 06:29:24;;;;;;;14.93;10.02;;;18.40;99.90;;;;;;4963073;28;20862;-63
2022/05/18 06:31:51;;;;;;;10.82;9.60;;;18.40;99.90;;;;;;4968466;28;20238;-63
2022/05/18 06:34:21;;;;;;;13.57;9.50;;;18.40;99.90;;;;;;4962524;28;20237;-63
2022/05/18 06:36:48;;;;;;;11.27;9.40;;;18.50;99.90;;;;;;4964990;28;20820;-63
2022/05/18 06:39:18;;;;;;;11.23;9.05;;;18.60;99.90;;;;;;4941939;28;20242;-63
2022/05/18 06:41:46;;;;;;;16.48;9.05;;;18.60;99.90;;;;;;4960876;28;20239;-63
2022/05/18 06:44:13;;;;;;;10.70;9.57;;;18.60;99.90;;;;;;4946396;28;20342;-63
2022/05/18 06:46:41;;;;;;;13.60;9.05;;;18.70;99.90;;;;;;4971697;28;20203;-63
2022/05/18 06:49:10;;;;;;;11.35;9.80;;;18.70;99.90;;;;;;4964423;28;21361;-63
2022/05/18 06:51:40;;;;;;;14.25;9.70;;;18.80;99.90;;;;;;4960461;28;20730;-63
2022/05/18 06:54:08;;;;;;;15.80;9.98;;;18.80;99.90;;;;;;4942913;28;20274;-63
2022/05/18 06:56:38;;;;;;;13.60;9.38;;;18.90;99.90;;;;;;4968358;28;20907;-64
2022/05/18 06:59:05;;;;;;;9.65;8.23;;;19.00;99.90;;;;;;4954373;28;20720;-63
2022/05/18 07:01:33;;;;;;;13.38;9.80;;;19.00;99.90;;;;;;4965672;28;20441;-64
2022/05/18 07:04:00;;;;;;;13.35;8.80;;;19.10;99.90;;;;;;4969236;28;20527;-63
2022/05/18 07:06:29;;;;;;;11.90;8.52;;;19.20;99.90;;;;;;4960851;28;20405;-64
2022/05/18 07:08:57;;;;;;;10.98;8.73;;;19.20;99.90;;;;;;4950399;28;20211;-63
2022/05/18 07:11:25;;;;;;;10.55;8.00;;;19.20;99.90;;;;;;4968976;28;20395;-63
2022/05/18 07:13:53;;;;;;;10.55;7.10;;;19.20;99.90;;;;;;4969331;28;20226;-63
2022/05/18 07:16:21;;;;;;;10.25;6.95;;;19.30;99.90;;;;;;4947041;28;20242;-64
2022/05/18 07:18:48;;;;;;;12.27;7.10;;;19.40;99.90;;;;;;4971398;28;20204;-63
2022/05/18 07:21:16;;;;;;;9.80;6.57;;;19.40;99.90;;;;;;4968736;28;20211;-63
2022/05/18 07:23:43;;;;;;;9.98;7.20;;;19.50;99.90;;;;;;4953195;28;21055;-63
2022/05/18 07:26:11;;;;;;;9.32;6.60;;;19.60;99.90;;;;;;4952886;28;20208;-63
2022/05/18 07:28:39;;;;;;;10.82;6.38;;;19.60;99.90;;;;;;4957027;28;20498;-64
2022/05/18 07:31:07;;;;;;;11.50;6.50;;;19.70;99.90;;;;;;4952049;28;20208;-64
2022/05/18 07:33:34;;;;;;;9.00;6.25;;;19.80;99.90;;;;;;4973711;28;20237;-64
2022/05/18 07:36:02;;;;;;;9.60;6.03;;;19.80;99.90;;;;;;4974350;28;20540;-64
2022/05/18 07:38:30;;;;;;;11.18;6.25;;;19.90;99.90;;;;;;4968946;28;20254;-63
2022/05/18 07:40:57;;;;;;;7.95;5.82;;;19.90;99.90;;;;;;4961742;28;20858;-64
2022/05/18 07:43:26;;;;;;;11.30;6.53;;;19.90;99.90;;;;;;4974074;28;20561;-63
2022/05/18 07:45:56;;;;;;;8.05;5.90;;;19.90;99.90;;;;;;4958519;28;20310;-63
2022/05/18 07:48:24;;;;;;;10.23;6.03;;;20.00;99.90;;;;;;4960136;28;21085;-63
2022/05/18 07:50:51;;;;;;;10.70;6.32;;;20.10;99.90;;;;;;4963860;28;23055;-63
2022/05/18 07:53:18;;;;;;;8.73;5.90;;;20.10;99.90;;;;;;4971720;28;20229;-64
2022/05/18 07:55:44;;;;;;;8.85;5.80;;;20.20;99.90;;;;;;4950666;28;20207;-64
2022/05/18 07:58:14;;;;;;;7.82;6.18;;;20.30;99.90;;;;;;4970668;28;20227;-64
2022/05/18 08:00:43;;;;;;;11.52;6.13;;;20.30;99.90;;;;;;4961759;28;20588;-63
2022/05/18 08:03:10;;;;;;;12.20;6.07;;;20.40;99.90;;;;;;4973464;28;20219;-63
2022/05/18 08:05:37;;;;;;;13.05;6.38;;;20.40;99.90;;;;;;4974690;28;20295;-63
2022/05/18 08:08:05;;;;;;;8.82;6.65;;;20.40;99.90;;;;;;4972294;28;20207;-63
2022/05/18 08:16:03;;;;;;;9.75;5.72;;;20.50;99.90;;;;;;4962503;28;20209;-64
2022/05/18 08:18:29;;;;;;;8.25;5.13;;;20.60;99.90;;;;;;4961699;28;20214;-63
2022/05/18 08:20:56;;;;;;;8.05;5.68;;;20.70;99.90;;;;;;4972157;28;20214;-64
2022/05/18 08:23:25;;;;;;;6.68;5.18;;;20.70;99.90;;;;;;4975279;28;20579;-63
2022/05/18 08:25:54;;;;;;;9.00;6.05;;;20.70;99.90;;;;;;4952991;28;20234;-63
2022/05/18 08:28:21;;;;;;;9.27;5.68;;;20.80;99.90;;;;;;4968260;28;20207;-63
2022/05/18 08:30:48;;;;;;;6.10;5.35;;;20.80;99.90;;;;;;4957522;28;20584;-64
2022/05/18 08:33:16;;;;;;;10.48;5.38;;;20.90;99.90;;;;;;4973063;28;20207;-63
2022/05/18 08:35:45;;;;;;;9.30;5.95;;;20.90;99.90;;;;;;4958791;28;20215;-63
2022/05/18 08:38:12;;;;;;;9.85;5.18;;;20.90;99.90;;;;;;4972003;28;20723;-63
2022/05/18 08:40:45;;;;;;;7.93;5.07;;;21.00;99.90;;;;;;4956141;28;20203;-63
2022/05/18 08:43:20;;;;;;;7.75;5.60;;;21.00;99.90;;;;;;4972556;28;20577;-64
2022/05/18 08:45:48;;;;;;;6.30;5.70;;;21.10;99.90;;;;;;4969240;28;20199;-64
2022/05/18 08:48:24;;;;;;;9.32;5.60;;;21.10;99.90;;;;;;4963034;28;20216;-65
2022/05/18 08:50:55;;;;;;;8.38;5.53;;;21.20;99.90;;;;;;4945621;28;20313;-64
2022/05/18 08:53:35;;;;;;;10.02;5.05;;;21.20;99.90;;;;;;4971381;28;20234;-64
2022/05/18 08:56:08;;;;;;;6.88;4.78;;;21.30;99.90;;;;;;4973684;28;20294;-64
2022/05/18 08:58:40;;;;;;;5.88;4.50;;;21.40;99.90;;;;;;4948115;28;20258;-65
2022/05/18 09:01:13;;;;;;;8.40;5.38;;;21.50;99.90;;;;;;4967880;28;20195;-63
2022/05/18 09:03:44;;;;;;;9.57;4.60;;;21.50;99.90;;;;;;4956043;28;20519;-63
2022/05/18 09:06:20;;;;;;;7.40;5.05;;;21.70;99.90;;;;;;4953892;28;20715;-63
2022/05/18 09:10:12;;;;;;;6.82;5.10;;;21.70;99.90;;;;;;4966000;28;20715;-63
2022/05/18 09:11:40;;;;;;;8.15;5.00;;;21.70;99.90;;;;;;4945659;28;21649;-63
2022/05/18 09:14:10;;;;;;;9.48;4.70;;;21.80;99.90;;;;;;4948879;28;20239;-63
2022/05/18 09:16:44;;;;;;;9.60;4.28;;;21.90;99.90;;;;;;4960024;28;20247;-63
2022/05/18 09:19:24;;;;;;;5.95;4.63;;;21.90;99.90;;;;;;4953928;28;20258;-63
2022/05/18 09:22:03;;;;;;;6.53;4.05;;;22.00;99.90;;;;;;4957338;28;20571;-63
2022/05/18 09:24:42;;;;;;;5.30;4.55;;;22.10;99.90;;;;;;4969284;28;20199;-63
2022/05/18 09:27:27;;;;;;;11.23;5.03;;;22.20;99.90;;;;;;4963902;28;20203;-63
2022/05/18 09:30:08;;;;;;;9.63;4.90;;;22.30;99.90;;;;;;4955885;28;20434;-63
2022/05/18 09:32:59;;;;;;;6.88;4.43;;;22.40;99.90;;;;;;4956997;28;20227;-63
2022/05/18 09:35:46;;;;;;;7.93;3.78;;;22.50;99.90;;;;;;4956884;28;20235;-63
2022/05/18 09:38:21;;;;;;;6.95;4.18;;;22.60;99.90;;;;;;4961291;28;20238;-63
2022/05/18 09:40:50;;;;;;;5.50;3.83;;;22.60;99.90;;;;;;4965292;28;20336;-63
2022/05/18 09:43:27;;;;;;;8.45;4.80;;;22.60;99.90;;;;;;4950754;28;20290;-63
2022/05/18 09:45:57;;;;;;;7.07;3.55;;;22.70;99.90;;;;;;4963710;28;20480;-63
2022/05/18 09:48:32;;;;;;;8.98;4.35;;;22.80;99.90;;;;;;4967186;28;20507;-63
2022/05/18 09:51:01;;;;;;;6.55;3.67;;;22.90;99.90;;;;;;4963062;28;20510;-63
2022/05/18 09:53:28;;;;;;;9.05;4.15;;;22.90;99.90;;;;;;4956125;28;20214;-63
2022/05/18 09:55:55;;;;;;;10.57;3.75;;;23.00;99.90;;;;;;4967228;28;20738;-63
2022/05/18 09:58:29;;;;;;;6.65;3.25;;;23.00;99.90;;;;;;4954771;28;20600;-63
2022/05/18 10:09:26;;;;;;;11.00;3.65;;;23.30;99.90;;;;;;4950827;28;20665;-62
2022/05/18 10:11:53;;;;;;;6.63;3.67;;;23.30;99.90;;;;;;4963766;28;20196;-62
2022/05/18 10:14:32;;;;;;;5.20;3.40;;;23.40;99.90;;;;;;4965705;28;20227;-63
2022/05/18 10:17:05;;;;;;;11.98;3.47;;;23.50;99.90;;;;;;4958685;28;20344;-63
2022/05/18 10:19:36;;;;;;;6.35;3.30;;;23.50;99.90;;;;;;4951405;28;20227;-63
2022/05/18 10:22:06;;;;;;;5.20;3.33;;;23.60;99.90;;;;;;4960517;28;20203;-63
2022/05/18 10:24:39;;;;;;;7.10;3.50;;;23.60;99.90;;;;;;4944823;28;20204;-63
2022/05/18 10:27:25;;;;;;;6.90;2.92;;;23.60;99.90;;;;;;4969732;28;20424;-63
2022/05/18 10:30:03;;;;;;;16.70;3.22;;;23.70;99.90;;;;;;4944135;28;20802;-63
2022/05/18 10:32:32;;;;;;;6.85;3.00;;;23.70;99.90;;;;;;4967240;28;20984;-63
2022/05/18 10:35:00;;;;;;;8.25;3.00;;;23.80;99.90;;;;;;4965037;28;20782;-63
2022/05/18 10:37:30;;;;;;;5.80;3.40;;;23.90;99.90;;;;;;4956072;28;20212;-63
2022/05/18 10:40:00;;;;;;;3.80;2.80;;;23.90;99.90;;;;;;4945057;28;20238;-63
2022/05/18 10:42:29;;;;;;;5.30;3.10;;;23.90;99.90;;;;;;4960998;28;20206;-63
2022/05/18 10:44:59;;;;;;;3.58;2.65;;;24.00;99.90;;;;;;4966970;28;20413;-63
2022/05/18 10:47:30;;;;;;;4.90;2.50;;;24.10;99.90;;;;;;4950431;28;20420;-63
2022/05/18 10:50:24;;;;;;;3.42;3.00;;;24.10;99.90;;;;;;4968102;28;20327;-63
2022/05/18 10:52:54;;;;;;;13.25;3.20;;;24.10;99.90;;;;;;4956636;28;20442;-63
2022/05/18 10:55:23;;;;;;;5.95;2.67;;;24.20;99.90;;;;;;4956839;28;20234;-63
2022/05/18 10:57:57;;;;;;;9.32;3.20;;;24.20;99.90;;;;;;4948590;28;20202;-63
2022/05/18 11:00:27;;;;;;;6.35;3.13;;;24.30;99.90;;;;;;4968202;28;20302;-63
2022/05/18 11:03:00;;;;;;;3.38;2.40;;;24.30;99.90;;;;;;4951958;28;20914;-63
2022/05/18 11:05:38;;;;;;;8.32;2.85;;;24.40;99.90;;;;;;4971933;28;20209;-63
2022/05/18 11:08:11;;;;;;;2.70;2.50;;;24.40;99.90;;;;;;4960804;28;20643;-63
2022/05/18 11:10:47;;;;;;;4.00;2.60;;;24.40;99.90;;;;;;4969299;28;20219;-63
2022/05/18 11:13:21;;;;;;;4.47;2.67;;;24.50;99.90;;;;;;4965277;28;20214;-63
2022/05/18 11:15:57;;;;;;;6.28;2.47;;;24.60;99.90;;;;;;4960566;28;20880;-63
2022/05/18 11:18:45;;;;;;;3.38;2.20;;;24.70;99.90;;;;;;4945215;28;20208;-63
2022/05/18 11:21:19;;;;;;;3.10;2.53;;;24.80;99.90;;;;;;4969213;28;20468;-63
2022/05/18 11:23:55;;;;;;;5.72;2.75;;;24.80;99.90;;;;;;4954249;28;20752;-63
2022/05/18 11:26:34;;;;;;;6.38;2.45;;;24.90;99.90;;;;;;4952086;28;20226;-63
2022/05/18 11:29:09;;;;;;;5.70;2.40;;;24.90;99.90;;;;;;4944355;28;20637;-63
2022/05/18 11:32:01;;;;;;;9.88;2.33;;;24.90;99.90;;;;;;4971437;28;20204;-63
2022/05/18 11:34:42;;;;;;;5.20;2.30;;;24.90;99.90;;;;;;4932361;28;20230;-63
2022/05/18 11:37:25;;;;;;;14.65;4.72;;;25.00;99.90;;;;;;4973862;28;20423;-63
2022/05/18 11:40:01;;;;;;;3.00;1.88;;;25.10;99.90;;;;;;4956539;28;20239;-63
2022/05/18 11:42:38;;;;;;;4.28;2.05;;;25.30;99.90;;;;;;4963303;28;21958;-63
2022/05/18 11:45:21;;;;;;;3.53;2.30;;;25.30;99.90;;;;;;4975091;28;20207;-64
2022/05/18 11:48:00;;;;;;;6.10;1.77;;;25.50;99.90;;;;;;4972920;28;20205;-63
2022/05/18 11:50:41;;;;;;;6.53;1.90;;;25.30;99.90;;;;;;4939264;28;20220;-63
2022/05/18 11:53:21;;;;;;;6.80;1.70;;;25.30;99.90;;;;;;4975501;28;20417;-63
2022/05/18 11:56:03;;;;;;;3.58;1.75;;;25.50;99.90;;;;;;4962088;28;20231;-63
2022/05/18 11:58:52;;;;;;;4.88;1.63;;;25.60;99.90;;;;;;4940427;28;20985;-63
2022/05/18 12:01:31;;;;;;;2.80;1.85;;;25.50;99.90;;;;;;4965319;28;20204;-63
2022/05/18 12:04:29;;;;;;;4.60;2.55;;;25.40;99.90;;;;;;4923870;28;20222;-63
2022/05/18 12:07:10;;;;;;;4.38;1.88;;;25.50;99.90;;;;;;4924505;28;21627;-63
2022/05/18 12:09:48;;;;;;;19.52;2.78;;;25.70;99.90;;;;;;4955186;28;20250;-63
2022/05/18 12:12:25;;;;;;;4.35;1.85;;;25.60;99.90;;;;;;4953831;28;20426;-63
2022/05/18 12:15:01;;;;;;;3.50;2.08;;;25.70;99.90;;;;;;4950959;28;20223;-63
2022/05/18 12:17:33;;;;;;;3.55;1.85;;;25.60;99.90;;;;;;4970242;28;20407;-63
2022/05/18 12:20:07;;;;;;;3.42;1.60;;;25.70;99.90;;;;;;4929647;28;20223;-63
2022/05/18 12:22:38;;;;;;;3.17;1.98;;;25.70;99.90;;;;;;4964853;28;20215;-63
2022/05/18 12:25:07;;;;;;;4.43;1.70;;;25.70;99.90;;;;;;4953737;28;20634;-63
2022/05/18 12:27:35;;;;;;;4.35;2.03;;;25.70;99.90;;;;;;4957891;28;20215;-63
2022/05/18 12:30:06;;;;;;;1.65;1.40;;;25.70;99.90;;;;;;4953460;28;20528;-64
2022/05/18 12:32:34;;;;;;;3.80;2.00;;;25.70;99.90;;;;;;4966888;28;20199;-63
2022/05/18 12:35:12;;;;;;;11.57;3.55;;;25.70;99.90;;;;;;4934560;28;20315;-63
2022/05/18 12:37:51;;;;;;;3.83;2.25;;;25.70;99.90;;;;;;4951053;28;20591;-63
2022/05/18 12:40:46;;;;;;;3.13;1.98;;;25.80;99.90;;;;;;4952358;28;20423;-63
2022/05/18 12:43:18;;;;;;;17.13;4.15;;;25.90;99.90;;;;;;4939264;28;20512;-63
2022/05/18 12:45:48;;;;;;;4.22;2.10;;;26.00;99.90;;;;;;4958697;28;20792;-63
2022/05/18 12:48:23;;;;;;;5.82;2.08;;;26.00;99.90;;;;;;4964548;28;20658;-63
2022/05/18 12:51:05;;;;;;;4.05;2.10;;;26.10;99.90;;;;;;4941064;28;20223;-63
2022/05/18 12:54:07;;;;;;;8.13;2.53;;;26.10;99.90;;;;;;4956828;28;20203;-63
2022/05/18 12:56:53;;;;;;;13.00;2.70;;;26.20;99.90;;;;;;4944914;28;20237;-63
2022/05/18 12:59:24;;;;;;;4.72;2.10;;;26.20;99.90;;;;;;4959515;28;20531;-63
2022/05/18 13:02:01;;;;;;;2.78;2.13;;;26.20;99.90;;;;;;4954734;28;20639;-63
2022/05/18 13:04:42;;;;;;;5.40;2.13;;;26.10;99.90;;;;;;4968480;28;20747;-63
2022/05/18 13:07:26;;;;;;;7.10;2.10;;;25.90;99.90;;;;;;4936326;28;20215;-63
2022/05/18 13:10:12;;;;;;;4.75;2.22;;;25.80;99.90;;;;;;4955682;28;20212;-63
2022/05/18 13:12:48;;;;;;;4.82;2.17;;;25.60;99.90;;;;;;4955338;28;20467;-63
2022/05/18 13:15:40;;;;;;;2.78;2.33;;;25.60;99.90;;;;;;4964188;28;20256;-63
2022/05/18 13:18:13;;;;;;;2.63;2.20;;;25.60;99.90;;;;;;4948462;28;20716;-63